sensor_id;sensor_type;location;lat;lon;timestamp;P1;durP1;ratioP1;P2;durP2;ratioP2
36745;SDS011;22715;52.182;21.206;2022-07-29T00:00:58;7.05;;;3.80;;
36745;SDS011;22715;52.182;21.206;2022-07-29T00:03:26;5.32;;;3.50;;
36745;SDS011;22715;52.182;21.206;2022-07-29T00:05:51;5.75;;;3.92;;
36745;SDS011;22715;52.182;21.206;2022-07-29T00:08:18;10.25;;;3.80;;
36745;SDS011;22715;52.182;21.206;2022-07-29T00:10:43;6.15;;;3.13;;
36745;SDS011;22715;52.182;21.206;2022-07-29T00:13:09;6.60;;;3.60;;
36745;SDS011;22715;52.182;21.206;2022-07-29T00:15:34;4.55;;;3.20;;
36745;SDS011;22715;52.182;21.206;2022-07-29T00:17:59;6.55;;;3.72;;
36745;SDS011;22715;52.182;21.206;2022-07-29T00:20:28;6.32;;;3.92;;
36745;SDS011;22715;52.182;21.206;2022-07-29T00:22:53;5.47;;;3.75;;
36745;SDS011;22715;52.182;21.206;2022-07-29T00:25:19;4.57;;;4.18;;
36745;SDS011;22715;52.182;21.206;2022-07-29T00:27:44;5.82;;;3.53;;
36745;SDS011;22715;52.182;21.206;2022-07-29T00:30:11;5.35;;;3.25;;
36745;SDS011;22715;52.182;21.206;2022-07-29T00:32:36;5.28;;;3.08;;
36745;SDS011;22715;52.182;21.206;2022-07-29T00:35:03;4.10;;;2.90;;
36745;SDS011;22715;52.182;21.206;2022-07-29T00:37:47;6.75;;;3.85;;
36745;SDS011;22715;52.182;21.206;2022-07-29T00:40:12;5.30;;;3.90;;
36745;SDS011;22715;52.182;21.206;2022-07-29T00:42:41;5.57;;;3.15;;
36745;SDS011;22715;52.182;21.206;2022-07-29T00:45:09;6.63;;;2.95;;
36745;SDS011;22715;52.182;21.206;2022-07-29T00:47:34;4.20;;;3.22;;
36745;SDS011;22715;52.182;21.206;2022-07-29T00:50:00;5.95;;;2.92;;
36745;SDS011;22715;52.182;21.206;2022-07-29T00:52:25;4.38;;;2.80;;
36745;SDS011;22715;52.182;21.206;2022-07-29T00:54:50;3.30;;;2.42;;
36745;SDS011;22715;52.182;21.206;2022-07-29T00:57:16;7.40;;;2.42;;
36745;SDS011;22715;52.182;21.206;2022-07-29T00:59:41;6.90;;;2.25;;
36745;SDS011;22715;52.182;21.206;2022-07-29T01:02:10;6.35;;;2.60;;
36745;SDS011;22715;52.182;21.206;2022-07-29T01:04:35;5.38;;;2.63;;
36745;SDS011;22715;52.182;21.206;2022-07-29T01:07:01;3.75;;;2.65;;
36745;SDS011;22715;52.182;21.206;2022-07-29T01:09:27;5.57;;;2.95;;
36745;SDS011;22715;52.182;21.206;2022-07-29T01:11:53;3.95;;;2.50;;
36745;SDS011;22715;52.182;21.206;2022-07-29T01:14:18;3.10;;;2.17;;
36745;SDS011;22715;52.182;21.206;2022-07-29T01:16:48;3.47;;;2.60;;
36745;SDS011;22715;52.182;21.206;2022-07-29T01:26:42;5.80;;;2.45;;
36745;SDS011;22715;52.182;21.206;2022-07-29T01:29:29;2.95;;;1.85;;
36745;SDS011;22715;52.182;21.206;2022-07-29T01:32:01;5.03;;;2.58;;
36745;SDS011;22715;52.182;21.206;2022-07-29T01:34:31;5.97;;;2.45;;
36745;SDS011;22715;52.182;21.206;2022-07-29T01:39:32;4.30;;;2.37;;
36745;SDS011;22715;52.182;21.206;2022-07-29T01:44:48;3.38;;;2.33;;
36745;SDS011;22715;52.182;21.206;2022-07-29T01:47:15;3.40;;;2.22;;
36745;SDS011;22715;52.182;21.206;2022-07-29T01:49:44;3.40;;;2.28;;
36745;SDS011;22715;52.182;21.206;2022-07-29T01:52:13;5.38;;;1.90;;
36745;SDS011;22715;52.182;21.206;2022-07-29T01:54:43;5.10;;;2.70;;
36745;SDS011;22715;52.182;21.206;2022-07-29T01:57:14;2.47;;;2.25;;
36745;SDS011;22715;52.182;21.206;2022-07-29T01:59:40;4.93;;;2.45;;
36745;SDS011;22715;52.182;21.206;2022-07-29T02:02:06;4.80;;;2.38;;
36745;SDS011;22715;52.182;21.206;2022-07-29T02:04:36;4.30;;;2.78;;
36745;SDS011;22715;52.182;21.206;2022-07-29T02:07:05;5.28;;;2.58;;
36745;SDS011;22715;52.182;21.206;2022-07-29T02:09:32;4.55;;;2.72;;
36745;SDS011;22715;52.182;21.206;2022-07-29T02:11:58;3.95;;;2.55;;
36745;SDS011;22715;52.182;21.206;2022-07-29T02:14:24;3.75;;;2.42;;
36745;SDS011;22715;52.182;21.206;2022-07-29T02:16:52;3.22;;;2.05;;
36745;SDS011;22715;52.182;21.206;2022-07-29T02:19:19;5.35;;;2.50;;
36745;SDS011;22715;52.182;21.206;2022-07-29T02:21:46;4.35;;;3.05;;
36745;SDS011;22715;52.182;21.206;2022-07-29T02:24:11;4.60;;;2.25;;
36745;SDS011;22715;52.182;21.206;2022-07-29T02:26:37;6.15;;;2.20;;
36745;SDS011;22715;52.182;21.206;2022-07-29T02:29:04;5.22;;;2.55;;
36745;SDS011;22715;52.182;21.206;2022-07-29T02:31:32;2.75;;;2.10;;
36745;SDS011;22715;52.182;21.206;2022-07-29T02:33:58;2.30;;;1.95;;
36745;SDS011;22715;52.182;21.206;2022-07-29T02:36:24;3.80;;;2.85;;
36745;SDS011;22715;52.182;21.206;2022-07-29T02:38:50;7.18;;;3.35;;
36745;SDS011;22715;52.182;21.206;2022-07-29T02:41:17;5.57;;;2.65;;
36745;SDS011;22715;52.182;21.206;2022-07-29T02:43:44;2.05;;;1.35;;
36745;SDS011;22715;52.182;21.206;2022-07-29T02:46:18;2.42;;;2.22;;
36745;SDS011;22715;52.182;21.206;2022-07-29T02:48:56;5.47;;;3.28;;
36745;SDS011;22715;52.182;21.206;2022-07-29T02:51:25;5.22;;;2.00;;
36745;SDS011;22715;52.182;21.206;2022-07-29T02:53:53;2.85;;;1.80;;
36745;SDS011;22715;52.182;21.206;2022-07-29T02:56:22;3.03;;;1.60;;
36745;SDS011;22715;52.182;21.206;2022-07-29T02:58:54;2.72;;;1.80;;
36745;SDS011;22715;52.182;21.206;2022-07-29T03:01:21;3.90;;;2.65;;
36745;SDS011;22715;52.182;21.206;2022-07-29T03:03:47;1.92;;;1.73;;
36745;SDS011;22715;52.182;21.206;2022-07-29T03:06:13;6.55;;;1.67;;
36745;SDS011;22715;52.182;21.206;2022-07-29T03:08:40;4.50;;;2.00;;
36745;SDS011;22715;52.182;21.206;2022-07-29T03:11:05;2.63;;;1.45;;
36745;SDS011;22715;52.182;21.206;2022-07-29T03:13:32;2.75;;;1.58;;
36745;SDS011;22715;52.182;21.206;2022-07-29T03:15:58;2.30;;;1.98;;
36745;SDS011;22715;52.182;21.206;2022-07-29T03:18:26;3.55;;;2.00;;
36745;SDS011;22715;52.182;21.206;2022-07-29T03:20:54;4.15;;;2.15;;
36745;SDS011;22715;52.182;21.206;2022-07-29T03:23:22;3.85;;;2.30;;
36745;SDS011;22715;52.182;21.206;2022-07-29T03:25:52;3.42;;;2.08;;
36745;SDS011;22715;52.182;21.206;2022-07-29T03:28:17;4.97;;;3.55;;
36745;SDS011;22715;52.182;21.206;2022-07-29T03:30:45;2.28;;;1.92;;
36745;SDS011;22715;52.182;21.206;2022-07-29T03:33:10;5.75;;;1.83;;
36745;SDS011;22715;52.182;21.206;2022-07-29T03:35:36;2.40;;;2.00;;
36745;SDS011;22715;52.182;21.206;2022-07-29T03:38:01;3.55;;;1.42;;
36745;SDS011;22715;52.182;21.206;2022-07-29T03:40:31;4.28;;;2.42;;
36745;SDS011;22715;52.182;21.206;2022-07-29T03:42:58;2.95;;;1.80;;
36745;SDS011;22715;52.182;21.206;2022-07-29T03:45:23;2.50;;;2.10;;
36745;SDS011;22715;52.182;21.206;2022-07-29T03:47:51;4.80;;;1.75;;
36745;SDS011;22715;52.182;21.206;2022-07-29T03:50:17;2.50;;;1.83;;
36745;SDS011;22715;52.182;21.206;2022-07-29T03:52:44;2.55;;;2.17;;
36745;SDS011;22715;52.182;21.206;2022-07-29T03:55:10;2.83;;;2.20;;
36745;SDS011;22715;52.182;21.206;2022-07-29T03:57:35;4.03;;;2.33;;
36745;SDS011;22715;52.182;21.206;2022-07-29T04:00:03;3.88;;;2.05;;
36745;SDS011;22715;52.182;21.206;2022-07-29T04:05:04;2.47;;;1.40;;
36745;SDS011;22715;52.182;21.206;2022-07-29T04:07:30;3.65;;;1.67;;
36745;SDS011;22715;52.182;21.206;2022-07-29T04:09:55;2.58;;;2.00;;
36745;SDS011;22715;52.182;21.206;2022-07-29T04:12:25;3.70;;;1.60;;
36745;SDS011;22715;52.182;21.206;2022-07-29T04:14:50;5.47;;;1.73;;
36745;SDS011;22715;52.182;21.206;2022-07-29T04:17:16;3.63;;;1.50;;
36745;SDS011;22715;52.182;21.206;2022-07-29T04:40:38;2.08;;;1.42;;
36745;SDS011;22715;52.182;21.206;2022-07-29T04:43:04;2.67;;;1.20;;
36745;SDS011;22715;52.182;21.206;2022-07-29T04:48:04;2.97;;;1.17;;
36745;SDS011;22715;52.182;21.206;2022-07-29T04:50:30;2.30;;;1.48;;
36745;SDS011;22715;52.182;21.206;2022-07-29T04:52:55;1.70;;;1.40;;
36745;SDS011;22715;52.182;21.206;2022-07-29T04:55:56;1.95;;;1.30;;
36745;SDS011;22715;52.182;21.206;2022-07-29T04:58:24;1.80;;;1.50;;
36745;SDS011;22715;52.182;21.206;2022-07-29T05:00:49;1.38;;;1.10;;
36745;SDS011;22715;52.182;21.206;2022-07-29T05:03:19;2.50;;;1.10;;
36745;SDS011;22715;52.182;21.206;2022-07-29T05:05:45;0.85;;;0.85;;
36745;SDS011;22715;52.182;21.206;2022-07-29T05:08:11;3.60;;;1.42;;
36745;SDS011;22715;52.182;21.206;2022-07-29T05:10:39;2.38;;;1.02;;
36745;SDS011;22715;52.182;21.206;2022-07-29T05:15:36;1.58;;;1.33;;
36745;SDS011;22715;52.182;21.206;2022-07-29T05:18:02;0.70;;;0.70;;
36745;SDS011;22715;52.182;21.206;2022-07-29T05:20:29;2.83;;;1.08;;
36745;SDS011;22715;52.182;21.206;2022-07-29T05:22:55;3.60;;;1.27;;
36745;SDS011;22715;52.182;21.206;2022-07-29T05:25:23;1.52;;;1.08;;
36745;SDS011;22715;52.182;21.206;2022-07-29T05:27:56;1.52;;;1.30;;
36745;SDS011;22715;52.182;21.206;2022-07-29T05:30:35;1.42;;;1.20;;
36745;SDS011;22715;52.182;21.206;2022-07-29T05:33:01;0.70;;;0.63;;
36745;SDS011;22715;52.182;21.206;2022-07-29T05:35:28;1.95;;;1.05;;
36745;SDS011;22715;52.182;21.206;2022-07-29T05:37:54;2.30;;;1.10;;
36745;SDS011;22715;52.182;21.206;2022-07-29T06:45:49;1.00;;;0.80;;
36745;SDS011;22715;52.182;21.206;2022-07-29T06:48:25;0.50;;;0.50;;
36745;SDS011;22715;52.182;21.206;2022-07-29T06:50:50;1.05;;;1.00;;
36745;SDS011;22715;52.182;21.206;2022-07-29T06:56:10;1.17;;;0.73;;
36745;SDS011;22715;52.182;21.206;2022-07-29T06:58:38;0.70;;;0.68;;
36745;SDS011;22715;52.182;21.206;2022-07-29T07:01:05;1.38;;;0.63;;
36745;SDS011;22715;52.182;21.206;2022-07-29T07:03:40;2.42;;;0.80;;
36745;SDS011;22715;52.182;21.206;2022-07-29T07:06:17;0.40;;;0.40;;
36745;SDS011;22715;52.182;21.206;2022-07-29T07:08:42;1.23;;;1.08;;
36745;SDS011;22715;52.182;21.206;2022-07-29T07:11:08;0.75;;;0.68;;
36745;SDS011;22715;52.182;21.206;2022-07-29T07:13:33;3.22;;;0.88;;
36745;SDS011;22715;52.182;21.206;2022-07-29T07:16:04;8.40;;;1.00;;
36745;SDS011;22715;52.182;21.206;2022-07-29T07:18:30;1.50;;;0.93;;
36745;SDS011;22715;52.182;21.206;2022-07-29T07:20:56;1.52;;;0.85;;
36745;SDS011;22715;52.182;21.206;2022-07-29T07:23:21;1.95;;;0.82;;
36745;SDS011;22715;52.182;21.206;2022-07-29T07:25:47;1.10;;;0.65;;
36745;SDS011;22715;52.182;21.206;2022-07-29T07:28:12;1.58;;;0.85;;
36745;SDS011;22715;52.182;21.206;2022-07-29T07:30:39;1.27;;;1.17;;
36745;SDS011;22715;52.182;21.206;2022-07-29T07:33:08;2.10;;;0.70;;
36745;SDS011;22715;52.182;21.206;2022-07-29T07:35:52;3.08;;;0.75;;
36745;SDS011;22715;52.182;21.206;2022-07-29T07:38:33;2.20;;;0.73;;
36745;SDS011;22715;52.182;21.206;2022-07-29T07:44:02;1.85;;;1.38;;
36745;SDS011;22715;52.182;21.206;2022-07-29T07:46:27;2.60;;;0.50;;
36745;SDS011;22715;52.182;21.206;2022-07-29T08:03:13;1.92;;;0.70;;
36745;SDS011;22715;52.182;21.206;2022-07-29T08:05:41;0.68;;;0.50;;
36745;SDS011;22715;52.182;21.206;2022-07-29T08:15:52;1.00;;;0.68;;
36745;SDS011;22715;52.182;21.206;2022-07-29T10:01:06;1.60;;;0.50;;
36745;SDS011;22715;52.182;21.206;2022-07-29T10:03:54;0.73;;;0.73;;
36745;SDS011;22715;52.182;21.206;2022-07-29T11:28:55;1.92;;;1.60;;
36745;SDS011;22715;52.182;21.206;2022-07-29T12:30:55;0.65;;;0.47;;
36745;SDS011;22715;52.182;21.206;2022-07-29T12:33:24;1.40;;;0.63;;
36745;SDS011;22715;52.182;21.206;2022-07-29T12:35:51;2.17;;;0.52;;
36745;SDS011;22715;52.182;21.206;2022-07-29T12:40:53;2.15;;;0.60;;
36745;SDS011;22715;52.182;21.206;2022-07-29T12:43:21;2.17;;;0.60;;
36745;SDS011;22715;52.182;21.206;2022-07-29T12:45:48;0.35;;;0.35;;
36745;SDS011;22715;52.182;21.206;2022-07-29T12:50:54;1.23;;;0.50;;
36745;SDS011;22715;52.182;21.206;2022-07-29T14:50:54;1.08;;;0.68;;
36745;SDS011;22715;52.182;21.206;2022-07-29T14:53:21;0.65;;;0.52;;
36745;SDS011;22715;52.182;21.206;2022-07-29T14:55:46;1.40;;;0.50;;
36745;SDS011;22715;52.182;21.206;2022-07-29T14:58:12;0.60;;;0.50;;
36745;SDS011;22715;52.182;21.206;2022-07-29T15:00:37;1.45;;;0.57;;
36745;SDS011;22715;52.182;21.206;2022-07-29T15:03:03;2.20;;;0.75;;
36745;SDS011;22715;52.182;21.206;2022-07-29T15:05:31;1.10;;;0.40;;
36745;SDS011;22715;52.182;21.206;2022-07-29T15:07:57;1.65;;;0.40;;
36745;SDS011;22715;52.182;21.206;2022-07-29T15:10:23;1.23;;;0.50;;
36745;SDS011;22715;52.182;21.206;2022-07-29T15:12:51;0.60;;;0.50;;
36745;SDS011;22715;52.182;21.206;2022-07-29T15:15:18;1.05;;;0.40;;
36745;SDS011;22715;52.182;21.206;2022-07-29T15:17:45;3.40;;;0.50;;
36745;SDS011;22715;52.182;21.206;2022-07-29T15:20:10;0.70;;;0.70;;
36745;SDS011;22715;52.182;21.206;2022-07-29T15:22:36;0.80;;;0.50;;
36745;SDS011;22715;52.182;21.206;2022-07-29T15:25:03;0.73;;;0.50;;
36745;SDS011;22715;52.182;21.206;2022-07-29T15:27:28;0.90;;;0.52;;
36745;SDS011;22715;52.182;21.206;2022-07-29T15:29:53;1.90;;;0.68;;
36745;SDS011;22715;52.182;21.206;2022-07-29T15:32:19;2.47;;;0.60;;
36745;SDS011;22715;52.182;21.206;2022-07-29T15:34:44;1.58;;;0.40;;
36745;SDS011;22715;52.182;21.206;2022-07-29T15:37:12;0.95;;;0.70;;
36745;SDS011;22715;52.182;21.206;2022-07-29T15:39:38;0.85;;;0.70;;
36745;SDS011;22715;52.182;21.206;2022-07-29T15:42:03;1.65;;;0.40;;
36745;SDS011;22715;52.182;21.206;2022-07-29T15:44:29;0.88;;;0.40;;
36745;SDS011;22715;52.182;21.206;2022-07-29T15:46:54;0.52;;;0.43;;
36745;SDS011;22715;52.182;21.206;2022-07-29T15:49:35;1.38;;;0.60;;
36745;SDS011;22715;52.182;21.206;2022-07-29T15:52:01;4.47;;;0.63;;
36745;SDS011;22715;52.182;21.206;2022-07-29T15:54:28;0.73;;;0.60;;
36745;SDS011;22715;52.182;21.206;2022-07-29T15:56:53;0.40;;;0.40;;
36745;SDS011;22715;52.182;21.206;2022-07-29T15:59:20;2.78;;;0.77;;
36745;SDS011;22715;52.182;21.206;2022-07-29T16:01:45;1.13;;;0.60;;
36745;SDS011;22715;52.182;21.206;2022-07-29T16:04:14;3.10;;;0.80;;
36745;SDS011;22715;52.182;21.206;2022-07-29T16:06:39;2.35;;;0.50;;
36745;SDS011;22715;52.182;21.206;2022-07-29T16:09:05;0.82;;;0.60;;
36745;SDS011;22715;52.182;21.206;2022-07-29T16:11:30;1.88;;;0.80;;
36745;SDS011;22715;52.182;21.206;2022-07-29T16:13:55;0.70;;;0.45;;
36745;SDS011;22715;52.182;21.206;2022-07-29T16:16:21;0.88;;;0.52;;
36745;SDS011;22715;52.182;21.206;2022-07-29T16:18:46;0.65;;;0.47;;
36745;SDS011;22715;52.182;21.206;2022-07-29T16:21:13;3.20;;;0.45;;
36745;SDS011;22715;52.182;21.206;2022-07-29T16:23:41;1.27;;;0.52;;
36745;SDS011;22715;52.182;21.206;2022-07-29T16:26:07;0.88;;;0.60;;
36745;SDS011;22715;52.182;21.206;2022-07-29T16:28:32;0.45;;;0.30;;
36745;SDS011;22715;52.182;21.206;2022-07-29T16:30:58;0.52;;;0.50;;
36745;SDS011;22715;52.182;21.206;2022-07-29T16:33:23;0.68;;;0.40;;
36745;SDS011;22715;52.182;21.206;2022-07-29T16:35:49;1.95;;;0.30;;
36745;SDS011;22715;52.182;21.206;2022-07-29T16:38:14;1.90;;;0.70;;
36745;SDS011;22715;52.182;21.206;2022-07-29T16:40:42;1.05;;;0.50;;
36745;SDS011;22715;52.182;21.206;2022-07-29T16:43:07;0.47;;;0.45;;
36745;SDS011;22715;52.182;21.206;2022-07-29T16:45:33;0.68;;;0.40;;
36745;SDS011;22715;52.182;21.206;2022-07-29T16:47:59;0.95;;;0.60;;
36745;SDS011;22715;52.182;21.206;2022-07-29T16:50:29;0.35;;;0.35;;
36745;SDS011;22715;52.182;21.206;2022-07-29T16:53:07;0.75;;;0.40;;
36745;SDS011;22715;52.182;21.206;2022-07-29T16:55:37;0.57;;;0.50;;
36745;SDS011;22715;52.182;21.206;2022-07-29T16:58:06;0.98;;;0.65;;
36745;SDS011;22715;52.182;21.206;2022-07-29T17:00:35;2.83;;;0.93;;
36745;SDS011;22715;52.182;21.206;2022-07-29T17:03:03;1.83;;;1.35;;
36745;SDS011;22715;52.182;21.206;2022-07-29T17:05:34;2.65;;;0.98;;
36745;SDS011;22715;52.182;21.206;2022-07-29T17:08:00;1.20;;;0.90;;
36745;SDS011;22715;52.182;21.206;2022-07-29T17:10:27;1.48;;;0.68;;
36745;SDS011;22715;52.182;21.206;2022-07-29T17:13:12;1.25;;;1.25;;
36745;SDS011;22715;52.182;21.206;2022-07-29T17:15:38;1.40;;;0.60;;
36745;SDS011;22715;52.182;21.206;2022-07-29T17:18:09;2.67;;;0.40;;
36745;SDS011;22715;52.182;21.206;2022-07-29T17:20:36;4.18;;;0.65;;
36745;SDS011;22715;52.182;21.206;2022-07-29T17:23:01;2.13;;;0.70;;
36745;SDS011;22715;52.182;21.206;2022-07-29T17:25:27;3.70;;;0.77;;
36745;SDS011;22715;52.182;21.206;2022-07-29T17:27:55;1.92;;;0.57;;
36745;SDS011;22715;52.182;21.206;2022-07-29T17:30:28;0.57;;;0.52;;
36745;SDS011;22715;52.182;21.206;2022-07-29T17:32:54;0.52;;;0.50;;
36745;SDS011;22715;52.182;21.206;2022-07-29T17:35:20;0.88;;;0.60;;
36745;SDS011;22715;52.182;21.206;2022-07-29T17:38:04;0.80;;;0.60;;
36745;SDS011;22715;52.182;21.206;2022-07-29T17:40:30;1.25;;;0.60;;
36745;SDS011;22715;52.182;21.206;2022-07-29T17:42:55;2.35;;;0.57;;
36745;SDS011;22715;52.182;21.206;2022-07-29T17:45:21;1.10;;;0.63;;
36745;SDS011;22715;52.182;21.206;2022-07-29T17:47:48;4.38;;;0.90;;
36745;SDS011;22715;52.182;21.206;2022-07-29T17:50:14;0.70;;;0.50;;
36745;SDS011;22715;52.182;21.206;2022-07-29T17:52:41;0.95;;;0.80;;
36745;SDS011;22715;52.182;21.206;2022-07-29T17:55:10;1.67;;;1.02;;
36745;SDS011;22715;52.182;21.206;2022-07-29T17:57:39;2.92;;;0.85;;
36745;SDS011;22715;52.182;21.206;2022-07-29T18:00:04;1.90;;;0.60;;
36745;SDS011;22715;52.182;21.206;2022-07-29T18:02:31;3.55;;;1.05;;
36745;SDS011;22715;52.182;21.206;2022-07-29T18:04:56;0.95;;;0.75;;
36745;SDS011;22715;52.182;21.206;2022-07-29T18:07:22;0.52;;;0.50;;
36745;SDS011;22715;52.182;21.206;2022-07-29T18:09:53;1.17;;;0.95;;
36745;SDS011;22715;52.182;21.206;2022-07-29T18:14:44;1.27;;;0.82;;
36745;SDS011;22715;52.182;21.206;2022-07-29T18:17:09;3.22;;;0.73;;
36745;SDS011;22715;52.182;21.206;2022-07-29T18:19:35;3.28;;;1.00;;
36745;SDS011;22715;52.182;21.206;2022-07-29T18:22:03;1.42;;;1.05;;
36745;SDS011;22715;52.182;21.206;2022-07-29T18:24:28;0.77;;;0.73;;
36745;SDS011;22715;52.182;21.206;2022-07-29T18:26:54;3.20;;;1.17;;
36745;SDS011;22715;52.182;21.206;2022-07-29T18:29:22;2.05;;;1.23;;
36745;SDS011;22715;52.182;21.206;2022-07-29T18:31:48;2.90;;;1.98;;
36745;SDS011;22715;52.182;21.206;2022-07-29T18:34:17;6.32;;;1.58;;
36745;SDS011;22715;52.182;21.206;2022-07-29T18:36:42;2.17;;;1.17;;
36745;SDS011;22715;52.182;21.206;2022-07-29T18:39:07;1.95;;;1.48;;
36745;SDS011;22715;52.182;21.206;2022-07-29T18:41:33;1.42;;;1.10;;
36745;SDS011;22715;52.182;21.206;2022-07-29T18:43:58;1.65;;;1.00;;
36745;SDS011;22715;52.182;21.206;2022-07-29T18:46:24;3.78;;;1.10;;
36745;SDS011;22715;52.182;21.206;2022-07-29T18:48:49;1.95;;;1.10;;
36745;SDS011;22715;52.182;21.206;2022-07-29T18:51:15;2.30;;;0.75;;
36745;SDS011;22715;52.182;21.206;2022-07-29T18:53:40;3.22;;;0.73;;
36745;SDS011;22715;52.182;21.206;2022-07-29T18:56:06;1.20;;;0.80;;
36745;SDS011;22715;52.182;21.206;2022-07-29T18:58:31;1.83;;;0.85;;
36745;SDS011;22715;52.182;21.206;2022-07-29T19:00:57;1.65;;;1.20;;
36745;SDS011;22715;52.182;21.206;2022-07-29T20:13:46;0.90;;;0.75;;
36745;SDS011;22715;52.182;21.206;2022-07-29T20:16:11;2.45;;;0.90;;
36745;SDS011;22715;52.182;21.206;2022-07-29T20:18:39;1.20;;;0.77;;
36745;SDS011;22715;52.182;21.206;2022-07-29T20:21:06;0.85;;;0.70;;
36745;SDS011;22715;52.182;21.206;2022-07-29T20:23:43;0.82;;;0.82;;
36745;SDS011;22715;52.182;21.206;2022-07-29T20:26:09;1.92;;;1.08;;
36745;SDS011;22715;52.182;21.206;2022-07-29T20:28:35;1.08;;;0.80;;
36745;SDS011;22715;52.182;21.206;2022-07-29T20:31:01;2.28;;;0.95;;
36745;SDS011;22715;52.182;21.206;2022-07-29T20:33:26;1.88;;;0.98;;
36745;SDS011;22715;52.182;21.206;2022-07-29T20:35:51;1.25;;;0.90;;
36745;SDS011;22715;52.182;21.206;2022-07-29T20:38:17;3.08;;;0.57;;
36745;SDS011;22715;52.182;21.206;2022-07-29T20:40:42;4.03;;;0.90;;
36745;SDS011;22715;52.182;21.206;2022-07-29T20:43:08;2.60;;;1.33;;
36745;SDS011;22715;52.182;21.206;2022-07-29T20:45:35;3.08;;;0.68;;
36745;SDS011;22715;52.182;21.206;2022-07-29T20:48:00;0.70;;;0.60;;
36745;SDS011;22715;52.182;21.206;2022-07-29T20:50:26;1.83;;;1.10;;
36745;SDS011;22715;52.182;21.206;2022-07-29T20:52:52;1.92;;;0.88;;
36745;SDS011;22715;52.182;21.206;2022-07-29T20:55:18;1.33;;;0.95;;
36745;SDS011;22715;52.182;21.206;2022-07-29T20:57:43;1.50;;;0.82;;
36745;SDS011;22715;52.182;21.206;2022-07-29T21:00:08;1.08;;;0.60;;
36745;SDS011;22715;52.182;21.206;2022-07-29T21:02:37;0.68;;;0.68;;
36745;SDS011;22715;52.182;21.206;2022-07-29T21:05:02;1.42;;;1.17;;
36745;SDS011;22715;52.182;21.206;2022-07-29T21:07:28;1.27;;;0.80;;
36745;SDS011;22715;52.182;21.206;2022-07-29T21:09:53;1.83;;;0.60;;
36745;SDS011;22715;52.182;21.206;2022-07-29T21:12:19;1.05;;;0.77;;
36745;SDS011;22715;52.182;21.206;2022-07-29T21:14:44;0.98;;;0.85;;
36745;SDS011;22715;52.182;21.206;2022-07-29T21:17:15;1.58;;;0.95;;
36745;SDS011;22715;52.182;21.206;2022-07-29T21:19:46;0.50;;;0.50;;
36745;SDS011;22715;52.182;21.206;2022-07-29T21:22:16;1.38;;;0.90;;
36745;SDS011;22715;52.182;21.206;2022-07-29T21:24:43;2.80;;;0.80;;
36745;SDS011;22715;52.182;21.206;2022-07-29T21:27:08;7.25;;;1.25;;
36745;SDS011;22715;52.182;21.206;2022-07-29T21:29:52;3.03;;;0.95;;
36745;SDS011;22715;52.182;21.206;2022-07-29T21:32:18;2.17;;;1.08;;
36745;SDS011;22715;52.182;21.206;2022-07-29T21:34:43;1.00;;;0.60;;
36745;SDS011;22715;52.182;21.206;2022-07-29T21:37:08;1.42;;;0.73;;
36745;SDS011;22715;52.182;21.206;2022-07-29T21:39:34;1.48;;;0.80;;
36745;SDS011;22715;52.182;21.206;2022-07-29T21:41:59;1.27;;;0.60;;
36745;SDS011;22715;52.182;21.206;2022-07-29T21:44:26;0.80;;;0.60;;
36745;SDS011;22715;52.182;21.206;2022-07-29T21:46:51;2.60;;;0.60;;
36745;SDS011;22715;52.182;21.206;2022-07-29T21:49:16;0.88;;;0.80;;
36745;SDS011;22715;52.182;21.206;2022-07-29T21:51:42;1.13;;;0.90;;
36745;SDS011;22715;52.182;21.206;2022-07-29T21:54:07;1.40;;;0.60;;
36745;SDS011;22715;52.182;21.206;2022-07-29T21:56:34;0.70;;;0.55;;
36745;SDS011;22715;52.182;21.206;2022-07-29T21:59:00;1.38;;;1.05;;
36745;SDS011;22715;52.182;21.206;2022-07-29T22:01:25;0.95;;;0.60;;
36745;SDS011;22715;52.182;21.206;2022-07-29T22:03:50;1.15;;;0.80;;
36745;SDS011;22715;52.182;21.206;2022-07-29T22:06:15;1.33;;;0.60;;
36745;SDS011;22715;52.182;21.206;2022-07-29T22:08:41;4.70;;;1.90;;
36745;SDS011;22715;52.182;21.206;2022-07-29T22:11:09;0.95;;;0.80;;
36745;SDS011;22715;52.182;21.206;2022-07-29T22:13:34;4.15;;;0.80;;
36745;SDS011;22715;52.182;21.206;2022-07-29T22:16:00;3.95;;;0.80;;
36745;SDS011;22715;52.182;21.206;2022-07-29T22:18:25;1.55;;;0.43;;
36745;SDS011;22715;52.182;21.206;2022-07-29T22:20:51;2.88;;;0.75;;
36745;SDS011;22715;52.182;21.206;2022-07-29T22:23:16;3.05;;;1.00;;
36745;SDS011;22715;52.182;21.206;2022-07-29T22:25:41;1.02;;;0.90;;
36745;SDS011;22715;52.182;21.206;2022-07-29T22:28:10;2.92;;;0.60;;
36745;SDS011;22715;52.182;21.206;2022-07-29T22:30:36;0.88;;;0.70;;
36745;SDS011;22715;52.182;21.206;2022-07-29T22:33:05;0.88;;;0.88;;
36745;SDS011;22715;52.182;21.206;2022-07-29T22:35:32;1.58;;;0.65;;
36745;SDS011;22715;52.182;21.206;2022-07-29T22:37:58;2.58;;;0.60;;
36745;SDS011;22715;52.182;21.206;2022-07-29T22:40:23;1.08;;;0.90;;
36745;SDS011;22715;52.182;21.206;2022-07-29T22:42:53;1.42;;;0.93;;
36745;SDS011;22715;52.182;21.206;2022-07-29T22:45:18;1.13;;;1.00;;
36745;SDS011;22715;52.182;21.206;2022-07-29T22:47:44;1.55;;;0.75;;
36745;SDS011;22715;52.182;21.206;2022-07-29T22:50:09;2.08;;;0.82;;
36745;SDS011;22715;52.182;21.206;2022-07-29T22:52:35;1.63;;;0.95;;
36745;SDS011;22715;52.182;21.206;2022-07-29T22:55:01;1.10;;;0.80;;
36745;SDS011;22715;52.182;21.206;2022-07-29T22:57:26;3.33;;;1.10;;
36745;SDS011;22715;52.182;21.206;2022-07-29T22:59:51;1.40;;;0.82;;
36745;SDS011;22715;52.182;21.206;2022-07-29T23:02:17;1.35;;;0.85;;
36745;SDS011;22715;52.182;21.206;2022-07-29T23:04:43;1.15;;;0.93;;
36745;SDS011;22715;52.182;21.206;2022-07-29T23:07:08;1.15;;;0.90;;
36745;SDS011;22715;52.182;21.206;2022-07-29T23:09:33;1.23;;;0.73;;
36745;SDS011;22715;52.182;21.206;2022-07-29T23:11:59;2.83;;;1.23;;
36745;SDS011;22715;52.182;21.206;2022-07-29T23:14:24;11.55;;;1.88;;
36745;SDS011;22715;52.182;21.206;2022-07-29T23:16:49;3.05;;;0.90;;
36745;SDS011;22715;52.182;21.206;2022-07-29T23:19:18;2.97;;;0.85;;
36745;SDS011;22715;52.182;21.206;2022-07-29T23:21:43;5.78;;;0.90;;
36745;SDS011;22715;52.182;21.206;2022-07-29T23:24:09;0.88;;;0.60;;
36745;SDS011;22715;52.182;21.206;2022-07-29T23:26:36;3.53;;;0.95;;
